sensor_id;sensor_type;location;lat;lon;timestamp;pressure;altitude;pressure_sealevel;temperature;humidity
26915;BME280;14480;52.608;13.416;2023-01-27T07:34:50;140335.63;;;-15.02;100.00
26915;BME280;14480;52.608;13.416;2023-01-27T07:39:55;140328.25;;;-15.06;100.00
26915;BME280;14480;52.608;13.416;2023-01-27T07:45:02;140327.00;;;-15.06;100.00
26915;BME280;14480;52.608;13.416;2023-01-27T07:50:07;140368.75;;;-14.89;100.00
26915;BME280;14480;52.608;13.416;2023-01-27T07:55:11;140381.00;;;-14.84;100.00
26915;BME280;14480;52.608;13.416;2023-01-27T08:00:18;140430.13;;;-14.63;100.00
26915;BME280;14480;52.608;13.416;2023-01-27T08:05:24;140441.16;;;-14.59;100.00
26915;BME280;14480;52.608;13.416;2023-01-27T08:10:30;140462.03;;;-14.50;100.00
26915;BME280;14480;52.608;13.416;2023-01-27T08:15:34;140482.88;;;-14.41;100.00
26915;BME280;14480;52.608;13.416;2023-01-27T08:20:40;140481.66;;;-14.42;100.00
26915;BME280;14480;52.608;13.416;2023-01-27T08:25:50;140493.91;;;-14.37;100.00
26915;BME280;14480;52.608;13.416;2023-01-27T08:30:54;140532.00;;;-14.21;100.00
26915;BME280;14480;52.608;13.416;2023-01-27T08:36:02;140554.13;;;-14.12;100.00
26915;BME280;14480;52.608;13.416;2023-01-27T08:41:08;140552.84;;;-14.13;100.00
26915;BME280;14480;52.608;13.416;2023-01-27T08:46:12;140583.59;;;-14.00;100.00
26915;BME280;14480;52.608;13.416;2023-01-27T08:51:18;140614.31;;;-13.87;100.00
26915;BME280;14480;52.608;13.416;2023-01-27T08:56:23;140625.34;;;-13.82;100.00
26915;BME280;14480;52.608;13.416;2023-01-27T09:01:26;140632.72;;;-13.79;100.00
26915;BME280;14480;52.608;13.416;2023-01-27T09:06:32;140649.94;;;-13.72;100.00
26915;BME280;14480;52.608;13.416;2023-01-27T09:11:36;140627.81;;;-13.81;100.00
26915;BME280;14480;52.608;13.416;2023-01-27T09:16:39;140641.34;;;-13.76;100.00
26915;BME280;14480;52.608;13.416;2023-01-27T09:21:47;140667.16;;;-13.65;100.00
26915;BME280;14480;52.608;13.416;2023-01-27T09:26:53;140652.38;;;-13.71;100.00
26915;BME280;14480;52.608;13.416;2023-01-27T09:31:58;140668.38;;;-13.65;100.00
26915;BME280;14480;52.608;13.416;2023-01-27T09:37:05;140660.97;;;-13.68;100.00
26915;BME280;14480;52.608;13.416;2023-01-27T09:47:42;140669.59;;;-13.64;100.00
26915;BME280;14480;52.608;13.416;2023-01-27T09:52:58;140659.75;;;-13.68;100.00
26915;BME280;14480;52.608;13.416;2023-01-27T09:58:06;140672.06;;;-13.63;100.00
26915;BME280;14480;52.608;13.416;2023-01-27T10:03:25;140691.69;;;-13.55;100.00
26915;BME280;14480;52.608;13.416;2023-01-27T10:13:56;140700.31;;;-13.51;100.00
26915;BME280;14480;52.608;13.416;2023-01-27T10:19:11;140681.88;;;-13.59;100.00
26915;BME280;14480;52.608;13.416;2023-01-27T10:24:24;140717.50;;;-13.44;100.00
26915;BME280;14480;52.608;13.416;2023-01-27T10:29:33;140747.00;;;-13.32;100.00
26915;BME280;14480;52.608;13.416;2023-01-27T10:34:42;140735.94;;;-13.37;100.00
26915;BME280;14480;52.608;13.416;2023-01-27T10:39:56;140726.13;;;-13.41;100.00
26915;BME280;14480;52.608;13.416;2023-01-27T10:45:33;140726.13;;;-13.41;100.00
26915;BME280;14480;52.608;13.416;2023-01-27T10:50:42;140695.41;;;-13.53;100.00
26915;BME280;14480;52.608;13.416;2023-01-27T10:55:49;140718.72;;;-13.44;100.00
26915;BME280;14480;52.608;13.416;2023-01-27T11:00:56;140724.91;;;-13.41;100.00
26915;BME280;14480;52.608;13.416;2023-01-27T11:11:53;140692.91;;;-13.55;100.00
26915;BME280;14480;52.608;13.416;2023-01-27T11:17:02;140690.47;;;-13.56;100.00
26915;BME280;14480;52.608;13.416;2023-01-27T11:22:16;140691.69;;;-13.55;100.00
26915;BME280;14480;52.608;13.416;2023-01-27T11:27:25;140701.53;;;-13.51;100.00
26915;BME280;14480;52.608;13.416;2023-01-27T11:32:39;140749.44;;;-13.31;100.00
26915;BME280;14480;52.608;13.416;2023-01-27T11:37:46;140701.53;;;-13.51;100.00
26915;BME280;14480;52.608;13.416;2023-01-27T11:42:51;140700.31;;;-13.51;100.00
26915;BME280;14480;52.608;13.416;2023-01-27T11:48:00;140718.72;;;-13.44;100.00
26915;BME280;14480;52.608;13.416;2023-01-27T11:53:09;140745.75;;;-13.33;100.00
26915;BME280;14480;52.608;13.416;2023-01-27T11:58:14;140759.31;;;-13.27;100.00
26915;BME280;14480;52.608;13.416;2023-01-27T12:03:28;140744.53;;;-13.33;100.00
26915;BME280;14480;52.608;13.416;2023-01-27T12:08:38;140711.34;;;-13.47;100.00
26915;BME280;14480;52.608;13.416;2023-01-27T12:13:46;140717.50;;;-13.44;100.00
26915;BME280;14480;52.608;13.416;2023-01-27T12:18:55;140751.94;;;-13.30;100.00
26915;BME280;14480;52.608;13.416;2023-01-27T12:24:01;140699.09;;;-13.52;100.00
26915;BME280;14480;52.608;13.416;2023-01-27T12:29:05;140726.13;;;-13.41;100.00
26915;BME280;14480;52.608;13.416;2023-01-27T12:34:21;140665.91;;;-13.66;100.00
26915;BME280;14480;52.608;13.416;2023-01-27T12:39:30;140683.09;;;-13.59;100.00
26915;BME280;14480;52.608;13.416;2023-01-27T12:44:39;140719.94;;;-13.43;100.00
26915;BME280;14480;52.608;13.416;2023-01-27T12:49:44;140699.09;;;-13.52;100.00
26915;BME280;14480;52.608;13.416;2023-01-27T12:54:49;140678.19;;;-13.61;100.00
26915;BME280;14480;52.608;13.416;2023-01-27T12:59:56;140652.38;;;-13.71;100.00
26915;BME280;14480;52.608;13.416;2023-01-27T13:05:02;140652.38;;;-13.71;100.00
26915;BME280;14480;52.608;13.416;2023-01-27T13:10:14;140610.63;;;-13.89;100.00
26915;BME280;14480;52.608;13.416;2023-01-27T13:15:21;140638.88;;;-13.77;100.00
26915;BME280;14480;52.608;13.416;2023-01-27T13:20:28;140609.34;;;-13.89;100.00
26915;BME280;14480;52.608;13.416;2023-01-27T13:25:36;140618.00;;;-13.86;100.00
26915;BME280;14480;52.608;13.416;2023-01-27T13:30:41;140658.50;;;-13.69;100.00
26915;BME280;14480;52.608;13.416;2023-01-27T13:35:50;140649.94;;;-13.72;100.00
26915;BME280;14480;52.608;13.416;2023-01-27T13:40:56;140660.97;;;-13.68;100.00
26915;BME280;14480;52.608;13.416;2023-01-27T13:46:01;140700.31;;;-13.51;100.00
26915;BME280;14480;52.608;13.416;2023-01-27T13:51:11;140713.81;;;-13.46;100.00
26915;BME280;14480;52.608;13.416;2023-01-27T13:56:21;140733.50;;;-13.38;100.00
26915;BME280;14480;52.608;13.416;2023-01-27T14:01:31;140750.72;;;-13.31;100.00
26915;BME280;14480;52.608;13.416;2023-01-27T14:06:48;140719.94;;;-13.43;100.00
26915;BME280;14480;52.608;13.416;2023-01-27T14:11:54;140710.13;;;-13.47;100.00
26915;BME280;14480;52.608;13.416;2023-01-27T14:17:06;140721.19;;;-13.43;100.00
26915;BME280;14480;52.608;13.416;2023-01-27T14:22:19;140754.41;;;-13.29;100.00
26915;BME280;14480;52.608;13.416;2023-01-27T14:27:30;140764.22;;;-13.25;100.00
26915;BME280;14480;52.608;13.416;2023-01-27T14:32:38;140787.53;;;-13.15;100.00
26915;BME280;14480;52.608;13.416;2023-01-27T14:37:49;140766.66;;;-13.24;100.00
26915;BME280;14480;52.608;13.416;2023-01-27T14:42:59;140770.34;;;-13.22;100.00
26915;BME280;14480;52.608;13.416;2023-01-27T14:48:11;140735.94;;;-13.37;100.00
26915;BME280;14480;52.608;13.416;2023-01-27T14:53:27;140707.69;;;-13.48;100.00
26915;BME280;14480;52.608;13.416;2023-01-27T14:58:34;140694.19;;;-13.54;100.00
26915;BME280;14480;52.608;13.416;2023-01-27T15:03:53;140711.34;;;-13.47;100.00
26915;BME280;14480;52.608;13.416;2023-01-27T15:09:12;140731.03;;;-13.39;100.00
26915;BME280;14480;52.608;13.416;2023-01-27T15:14:31;140697.88;;;-13.52;100.00
26915;BME280;14480;52.608;13.416;2023-01-27T15:19:45;140702.78;;;-13.50;100.00
26915;BME280;14480;52.608;13.416;2023-01-27T15:35:30;140734.72;;;-13.37;100.00
26915;BME280;14480;52.608;13.416;2023-01-27T15:46:27;140690.47;;;-13.56;100.00
26915;BME280;14480;52.608;13.416;2023-01-27T15:51:34;140692.91;;;-13.55;100.00
26915;BME280;14480;52.608;13.416;2023-01-27T15:56:39;140689.22;;;-13.56;100.00
26915;BME280;14480;52.608;13.416;2023-01-27T16:01:44;140689.22;;;-13.56;100.00
26915;BME280;14480;52.608;13.416;2023-01-27T16:06:51;140694.19;;;-13.54;100.00
26915;BME280;14480;52.608;13.416;2023-01-27T16:12:05;140695.41;;;-13.53;100.00
26915;BME280;14480;52.608;13.416;2023-01-27T16:17:14;140678.19;;;-13.61;100.00
26915;BME280;14480;52.608;13.416;2023-01-27T16:22:20;140692.91;;;-13.55;100.00
26915;BME280;14480;52.608;13.416;2023-01-27T16:27:32;140697.88;;;-13.52;100.00
26915;BME280;14480;52.608;13.416;2023-01-27T16:32:38;140707.69;;;-13.48;100.00
26915;BME280;14480;52.608;13.416;2023-01-27T16:37:58;140673.28;;;-13.63;100.00
26915;BME280;14480;52.608;13.416;2023-01-27T16:43:03;140633.94;;;-13.79;100.00
26915;BME280;14480;52.608;13.416;2023-01-27T16:48:14;140615.53;;;-13.87;100.00
26915;BME280;14480;52.608;13.416;2023-01-27T16:53:23;140636.38;;;-13.78;100.00
26915;BME280;14480;52.608;13.416;2023-01-27T16:58:27;140589.72;;;-13.97;100.00
26915;BME280;14480;52.608;13.416;2023-01-27T17:03:47;140566.38;;;-14.07;100.00
26915;BME280;14480;52.608;13.416;2023-01-27T17:08:55;140566.38;;;-14.07;100.00
26915;BME280;14480;52.608;13.416;2023-01-27T17:14:09;140567.63;;;-14.06;100.00
26915;BME280;14480;52.608;13.416;2023-01-27T17:19:32;140535.69;;;-14.20;100.00
26915;BME280;14480;52.608;13.416;2023-01-27T17:24:39;140509.91;;;-14.30;100.00
26915;BME280;14480;52.608;13.416;2023-01-27T17:29:48;140455.91;;;-14.53;100.00
26915;BME280;14480;52.608;13.416;2023-01-27T17:34:55;140428.91;;;-14.64;100.00
26915;BME280;14480;52.608;13.416;2023-01-27T17:40:01;140338.09;;;-15.01;100.00
26915;BME280;14480;52.608;13.416;2023-01-27T17:45:21;140340.53;;;-15.00;100.00
26915;BME280;14480;52.608;13.416;2023-01-27T17:50:26;140269.34;;;-15.30;100.00
26915;BME280;14480;52.608;13.416;2023-01-27T17:55:34;140235.00;;;-15.44;100.00
26915;BME280;14480;52.608;13.416;2023-01-27T18:00:38;140199.44;;;-15.59;100.00
26915;BME280;14480;52.608;13.416;2023-01-27T18:05:44;140184.75;;;-15.65;100.00
26915;BME280;14480;52.608;13.416;2023-01-27T18:10:52;140176.19;;;-15.69;100.00
26915;BME280;14480;52.608;13.416;2023-01-27T18:16:13;140143.09;;;-15.82;100.00
26915;BME280;14480;52.608;13.416;2023-01-27T18:21:21;140138.19;;;-15.84;100.00
26915;BME280;14480;52.608;13.416;2023-01-27T18:26:27;140118.56;;;-15.93;100.00
26915;BME280;14480;52.608;13.416;2023-01-27T18:31:33;140130.81;;;-15.87;100.00
26915;BME280;14480;52.608;13.416;2023-01-27T18:36:48;140118.56;;;-15.93;100.00
26915;BME280;14480;52.608;13.416;2023-01-27T18:41:57;140152.88;;;-15.78;100.00
26915;BME280;14480;52.608;13.416;2023-01-27T18:52:22;140237.47;;;-15.43;100.00
26915;BME280;14480;52.608;13.416;2023-01-27T18:57:31;140171.28;;;-15.71;100.00
26915;BME280;14480;52.608;13.416;2023-01-27T19:02:34;140210.47;;;-15.54;100.00
26915;BME280;14480;52.608;13.416;2023-01-27T19:07:38;140166.41;;;-15.73;100.00
26915;BME280;14480;52.608;13.416;2023-01-27T19:12:43;140167.63;;;-15.72;100.00
26915;BME280;14480;52.608;13.416;2023-01-27T19:17:47;140186.00;;;-15.65;100.00
26915;BME280;14480;52.608;13.416;2023-01-27T19:22:50;140163.94;;;-15.74;100.00
26915;BME280;14480;52.608;13.416;2023-01-27T19:27:56;140161.47;;;-15.75;100.00
26915;BME280;14480;52.608;13.416;2023-01-27T19:33:10;140179.88;;;-15.67;100.00
26915;BME280;14480;52.608;13.416;2023-01-27T19:38:17;140174.97;;;-15.69;100.00
26915;BME280;14480;52.608;13.416;2023-01-27T19:43:24;140144.31;;;-15.82;100.00
26915;BME280;14480;52.608;13.416;2023-01-27T19:48:31;140150.44;;;-15.79;100.00
26915;BME280;14480;52.608;13.416;2023-01-27T19:53:37;140144.31;;;-15.82;100.00
26915;BME280;14480;52.608;13.416;2023-01-27T19:58:45;140101.38;;;-16.00;100.00
26915;BME280;14480;52.608;13.416;2023-01-27T20:03:55;140090.38;;;-16.04;100.00
26915;BME280;14480;52.608;13.416;2023-01-27T20:08:59;140091.59;;;-16.04;100.00
26915;BME280;14480;52.608;13.416;2023-01-27T20:14:06;140067.06;;;-16.14;100.00
26915;BME280;14480;52.608;13.416;2023-01-27T20:19:13;140085.47;;;-16.06;100.00
26915;BME280;14480;52.608;13.416;2023-01-27T20:24:17;140060.94;;;-16.16;100.00
26915;BME280;14480;52.608;13.416;2023-01-27T20:29:23;140081.81;;;-16.08;100.00
26915;BME280;14480;52.608;13.416;2023-01-27T20:34:28;140095.25;;;-16.02;100.00
26915;BME280;14480;52.608;13.416;2023-01-27T20:39:34;140097.72;;;-16.01;100.00
26915;BME280;14480;52.608;13.416;2023-01-27T20:44:40;140080.56;;;-16.08;100.00
26915;BME280;14480;52.608;13.416;2023-01-27T20:49:44;140049.88;;;-16.21;100.00
26915;BME280;14480;52.608;13.416;2023-01-27T20:54:47;140079.34;;;-16.09;100.00
26915;BME280;14480;52.608;13.416;2023-01-27T20:59:52;140068.28;;;-16.13;100.00
26915;BME280;14480;52.608;13.416;2023-01-27T21:04:55;140111.22;;;-15.96;100.00
26915;BME280;14480;52.608;13.416;2023-01-27T21:09:59;140079.34;;;-16.09;100.00
26915;BME280;14480;52.608;13.416;2023-01-27T21:15:05;140027.88;;;-16.30;100.00
26915;BME280;14480;52.608;13.416;2023-01-27T21:20:11;139984.94;;;-16.48;100.00
26915;BME280;14480;52.608;13.416;2023-01-27T21:25:15;139932.31;;;-16.70;100.00
26915;BME280;14480;52.608;13.416;2023-01-27T21:30:21;139964.09;;;-16.57;100.00
26915;BME280;14480;52.608;13.416;2023-01-27T21:35:26;139927.41;;;-16.72;100.00
26915;BME280;14480;52.608;13.416;2023-01-27T21:40:32;139895.56;;;-16.85;100.00
26915;BME280;14480;52.608;13.416;2023-01-27T21:45:37;139864.97;;;-16.98;100.00
26915;BME280;14480;52.608;13.416;2023-01-27T21:50:40;139857.63;;;-17.01;100.00
26915;BME280;14480;52.608;13.416;2023-01-27T21:55:44;139818.41;;;-17.17;100.00
26915;BME280;14480;52.608;13.416;2023-01-27T22:00:48;139786.56;;;-17.30;100.00
26915;BME280;14480;52.608;13.416;2023-01-27T22:05:52;139764.53;;;-17.40;100.00
26915;BME280;14480;52.608;13.416;2023-01-27T22:11:00;139766.97;;;-17.38;100.00
26915;BME280;14480;52.608;13.416;2023-01-27T22:16:11;139740.03;;;-17.50;100.00
26915;BME280;14480;52.608;13.416;2023-01-27T22:21:16;139738.81;;;-17.50;100.00
26915;BME280;14480;52.608;13.416;2023-01-27T22:26:20;139696.00;;;-17.68;100.00
26915;BME280;14480;52.608;13.416;2023-01-27T22:31:25;139725.38;;;-17.56;100.00
26915;BME280;14480;52.608;13.416;2023-01-27T22:36:28;139710.66;;;-17.62;100.00
26915;BME280;14480;52.608;13.416;2023-01-27T22:41:32;139732.72;;;-17.53;100.00
26915;BME280;14480;52.608;13.416;2023-01-27T22:46:43;139715.56;;;-17.60;100.00
26915;BME280;14480;52.608;13.416;2023-01-27T22:51:47;139709.44;;;-17.62;100.00
